sensor_id;sensor_type;location;lat;lon;timestamp;pressure;altitude;pressure_sealevel;temperature;humidity
72570;BME280;60594;50.204;8.844;2023-03-22T00:01:09;99754.94;;;7.63;100.00
72570;BME280;60594;50.204;8.844;2023-03-22T00:03:36;99752.38;;;7.50;100.00
72570;BME280;60594;50.204;8.844;2023-03-22T00:06:02;99754.72;;;7.66;100.00
72570;BME280;60594;50.204;8.844;2023-03-22T00:08:29;99746.16;;;7.73;100.00
72570;BME280;60594;50.204;8.844;2023-03-22T00:10:55;99744.59;;;7.71;100.00
72570;BME280;60594;50.204;8.844;2023-03-22T00:13:22;99746.44;;;7.81;100.00
72570;BME280;60594;50.204;8.844;2023-03-22T00:15:48;99737.28;;;7.85;100.00
72570;BME280;60594;50.204;8.844;2023-03-22T00:18:15;99743.78;;;7.81;100.00
72570;BME280;60594;50.204;8.844;2023-03-22T00:20:49;99737.75;;;7.79;100.00
72570;BME280;60594;50.204;8.844;2023-03-22T00:23:16;99720.00;;;7.69;100.00
72570;BME280;60594;50.204;8.844;2023-03-22T00:25:44;99733.28;;;7.80;100.00
72570;BME280;60594;50.204;8.844;2023-03-22T00:28:11;99722.53;;;7.70;100.00
72570;BME280;60594;50.204;8.844;2023-03-22T00:30:38;99723.53;;;7.80;100.00
72570;BME280;60594;50.204;8.844;2023-03-22T00:33:05;99725.59;;;7.88;100.00
72570;BME280;60594;50.204;8.844;2023-03-22T00:35:32;99726.09;;;7.93;100.00
72570;BME280;60594;50.204;8.844;2023-03-22T00:37:58;99719.66;;;7.73;100.00
72570;BME280;60594;50.204;8.844;2023-03-22T00:40:39;99722.38;;;7.61;100.00
72570;BME280;60594;50.204;8.844;2023-03-22T00:43:07;99724.25;;;7.71;100.00
72570;BME280;60594;50.204;8.844;2023-03-22T00:45:33;99703.63;;;7.75;100.00
72570;BME280;60594;50.204;8.844;2023-03-22T00:48:09;99722.09;;;7.87;100.00
72570;BME280;60594;50.204;8.844;2023-03-22T00:50:39;99714.63;;;7.92;100.00
72570;BME280;60594;50.204;8.844;2023-03-22T00:53:06;99713.78;;;7.81;100.00
72570;BME280;60594;50.204;8.844;2023-03-22T00:55:33;99709.50;;;7.67;100.00
72570;BME280;60594;50.204;8.844;2023-03-22T00:57:59;99700.94;;;7.64;100.00
72570;BME280;60594;50.204;8.844;2023-03-22T01:00:26;99699.41;;;7.72;100.00
72570;BME280;60594;50.204;8.844;2023-03-22T01:02:52;99697.22;;;7.66;100.00
72570;BME280;60594;50.204;8.844;2023-03-22T01:05:20;99702.25;;;7.58;100.00
72570;BME280;60594;50.204;8.844;2023-03-22T01:07:47;99696.34;;;7.55;100.00
72570;BME280;60594;50.204;8.844;2023-03-22T01:10:17;99699.50;;;7.60;100.00
72570;BME280;60594;50.204;8.844;2023-03-22T01:12:44;99697.94;;;7.68;100.00
72570;BME280;60594;50.204;8.844;2023-03-22T01:15:11;99695.91;;;7.83;100.00
72570;BME280;60594;50.204;8.844;2023-03-22T01:17:38;99696.53;;;7.75;100.00
72570;BME280;60594;50.204;8.844;2023-03-22T01:20:05;99695.88;;;7.72;100.00
72570;BME280;60594;50.204;8.844;2023-03-22T01:22:32;99690.09;;;7.67;100.00
72570;BME280;60594;50.204;8.844;2023-03-22T01:24:59;99694.09;;;7.72;100.00
72570;BME280;60594;50.204;8.844;2023-03-22T01:27:25;99696.53;;;7.75;100.00
72570;BME280;60594;50.204;8.844;2023-03-22T01:29:52;99694.09;;;7.72;100.00
72570;BME280;60594;50.204;8.844;2023-03-22T01:32:18;99690.09;;;7.67;100.00
72570;BME280;60594;50.204;8.844;2023-03-22T01:34:45;99694.31;;;7.69;100.00
72570;BME280;60594;50.204;8.844;2023-03-22T01:37:11;99690.69;;;7.70;100.00
72570;BME280;60594;50.204;8.844;2023-03-22T01:39:43;99677.56;;;7.69;100.00
72570;BME280;60594;50.204;8.844;2023-03-22T01:42:15;99678.53;;;7.68;100.00
72570;BME280;60594;50.204;8.844;2023-03-22T01:44:43;99679.00;;;7.73;100.00
72570;BME280;60594;50.204;8.844;2023-03-22T01:47:10;99676.50;;;7.71;100.00
72570;BME280;60594;50.204;8.844;2023-03-22T01:49:38;99681.44;;;7.76;100.00
72570;BME280;60594;50.204;8.844;2023-03-22T01:52:10;99676.78;;;8.01;100.00
72570;BME280;60594;50.204;8.844;2023-03-22T01:54:52;99682.00;;;8.25;100.00
72570;BME280;60594;50.204;8.844;2023-03-22T01:57:35;99680.28;;;8.35;100.00
72570;BME280;60594;50.204;8.844;2023-03-22T02:00:08;99682.47;;;8.41;100.00
72570;BME280;60594;50.204;8.844;2023-03-22T02:02:47;99670.75;;;8.43;100.00
72570;BME280;60594;50.204;8.844;2023-03-22T02:05:25;99665.22;;;8.46;100.00
72570;BME280;60594;50.204;8.844;2023-03-22T02:07:53;99665.69;;;8.40;100.00
72570;BME280;60594;50.204;8.844;2023-03-22T02:10:23;99673.19;;;8.35;100.00
72570;BME280;60594;50.204;8.844;2023-03-22T02:13:13;99665.69;;;8.29;100.00
72570;BME280;60594;50.204;8.844;2023-03-22T02:16:25;99658.81;;;8.27;100.00
72570;BME280;60594;50.204;8.844;2023-03-22T02:27:37;99644.69;;;7.93;100.00
72570;BME280;60594;50.204;8.844;2023-03-22T02:30:29;99642.63;;;7.86;100.00
72570;BME280;60594;50.204;8.844;2023-03-22T02:38:54;99653.97;;;7.77;100.00
72570;BME280;60594;50.204;8.844;2023-03-22T02:41:39;99649.03;;;7.94;100.00
72570;BME280;60594;50.204;8.844;2023-03-22T02:44:21;99645.63;;;7.70;100.00
72570;BME280;60594;50.204;8.844;2023-03-22T02:47:06;99641.06;;;7.83;100.00
72570;BME280;60594;50.204;8.844;2023-03-22T02:49:45;99654.69;;;7.90;100.00
72570;BME280;60594;50.204;8.844;2023-03-22T02:52:20;99647.69;;;7.78;100.00
72570;BME280;60594;50.204;8.844;2023-03-22T02:55:04;99634.78;;;7.84;100.00
72570;BME280;60594;50.204;8.844;2023-03-22T02:57:51;99640.84;;;7.86;100.00
72570;BME280;60594;50.204;8.844;2023-03-22T03:00:19;99640.81;;;7.75;100.00
72570;BME280;60594;50.204;8.844;2023-03-22T03:02:49;99648.63;;;7.55;100.00
72570;BME280;60594;50.204;8.844;2023-03-22T03:05:19;99640.16;;;7.50;100.00
72570;BME280;60594;50.204;8.844;2023-03-22T03:07:51;99638.38;;;7.50;100.00
72570;BME280;60594;50.204;8.844;2023-03-22T03:10:21;99637.66;;;7.59;100.00
72570;BME280;60594;50.204;8.844;2023-03-22T03:12:48;99654.13;;;7.41;100.00
72570;BME280;60594;50.204;8.844;2023-03-22T03:15:18;99654.53;;;7.24;100.00
72570;BME280;60594;50.204;8.844;2023-03-22T03:17:58;99652.00;;;7.22;100.00
72570;BME280;60594;50.204;8.844;2023-03-22T03:23:25;99650.19;;;7.12;100.00
72570;BME280;60594;50.204;8.844;2023-03-22T03:26:07;99647.63;;;7.10;100.00
72570;BME280;60594;50.204;8.844;2023-03-22T03:28:49;99648.16;;;7.26;100.00
72570;BME280;60594;50.204;8.844;2023-03-22T03:31:44;99648.94;;;7.39;100.00
72570;BME280;60594;50.204;8.844;2023-03-22T03:34:14;99643.03;;;7.47;100.00
72570;BME280;60594;50.204;8.844;2023-03-22T03:36:49;99640.16;;;7.50;100.00
72570;BME280;60594;50.204;8.844;2023-03-22T03:39:19;99638.25;;;7.52;100.00
72570;BME280;60594;50.204;8.844;2023-03-22T03:41:49;99635.81;;;7.49;100.00
72570;BME280;60594;50.204;8.844;2023-03-22T03:44:18;99632.03;;;7.29;100.00
72570;BME280;60594;50.204;8.844;2023-03-22T03:46:45;99626.53;;;7.43;100.00
72570;BME280;60594;50.204;8.844;2023-03-22T03:49:13;99626.66;;;7.42;100.00
72570;BME280;60594;50.204;8.844;2023-03-22T03:51:46;99617.38;;;7.47;100.00
72570;BME280;60594;50.204;8.844;2023-03-22T03:54:13;99609.78;;;7.54;100.00
72570;BME280;60594;50.204;8.844;2023-03-22T03:56:40;99613.91;;;7.58;100.00
72570;BME280;60594;50.204;8.844;2023-03-22T03:59:06;99611.09;;;7.48;100.00
72570;BME280;60594;50.204;8.844;2023-03-22T04:01:34;99608.56;;;7.47;100.00
72570;BME280;60594;50.204;8.844;2023-03-22T04:04:13;99614.72;;;7.47;100.00
72570;BME280;60594;50.204;8.844;2023-03-22T04:06:56;99614.13;;;7.44;100.00
72570;BME280;60594;50.204;8.844;2023-03-22T04:09:25;99623.41;;;7.38;100.00
72570;BME280;60594;50.204;8.844;2023-03-22T04:11:56;99622.53;;;7.27;100.00
72570;BME280;60594;50.204;8.844;2023-03-22T04:14:24;99621.94;;;7.23;100.00
72570;BME280;60594;50.204;8.844;2023-03-22T04:16:53;99612.63;;;7.18;100.00
72570;BME280;60594;50.204;8.844;2023-03-22T04:19:22;99608.66;;;7.23;100.00
72570;BME280;60594;50.204;8.844;2023-03-22T04:21:48;99604.69;;;7.18;100.00
72570;BME280;60594;50.204;8.844;2023-03-22T04:24:15;99603.72;;;7.19;100.00
72570;BME280;60594;50.204;8.844;2023-03-22T04:26:44;99609.63;;;7.22;100.00
72570;BME280;60594;50.204;8.844;2023-03-22T04:29:23;99610.47;;;7.23;100.00
72570;BME280;60594;50.204;8.844;2023-03-22T04:31:55;99597.78;;;7.15;100.00
72570;BME280;60594;50.204;8.844;2023-03-22T04:34:30;99589.84;;;7.15;100.00
72570;BME280;60594;50.204;8.844;2023-03-22T04:37:00;99586.47;;;7.13;100.00
72570;BME280;60594;50.204;8.844;2023-03-22T04:39:36;99584.88;;;6.99;100.00
72570;BME280;60594;50.204;8.844;2023-03-22T04:42:22;99575.59;;;6.94;100.00
72570;BME280;60594;50.204;8.844;2023-03-22T04:44:56;99582.31;;;6.87;100.00
72570;BME280;60594;50.204;8.844;2023-03-22T04:47:23;99581.94;;;6.91;100.00
72570;BME280;60594;50.204;8.844;2023-03-22T04:49:49;99581.78;;;6.82;100.00
72570;BME280;60594;50.204;8.844;2023-03-22T04:52:17;99590.69;;;6.81;100.00
72570;BME280;60594;50.204;8.844;2023-03-22T04:54:50;99586.53;;;6.89;100.00
72570;BME280;60594;50.204;8.844;2023-03-22T04:57:17;99578.56;;;6.89;100.00
72570;BME280;60594;50.204;8.844;2023-03-22T04:59:46;99575.91;;;6.89;100.00
72570;BME280;60594;50.204;8.844;2023-03-22T05:02:14;99567.66;;;6.94;100.00
72570;BME280;60594;50.204;8.844;2023-03-22T05:04:42;99586.63;;;6.88;100.00
72570;BME280;60594;50.204;8.844;2023-03-22T05:07:22;99568.72;;;7.02;100.00
72570;BME280;60594;50.204;8.844;2023-03-22T05:09:53;99571.38;;;7.02;100.00
72570;BME280;60594;50.204;8.844;2023-03-22T05:12:19;99573.78;;;7.05;100.00
72570;BME280;60594;50.204;8.844;2023-03-22T05:14:52;99573.81;;;7.17;100.00
72570;BME280;60594;50.204;8.844;2023-03-22T05:17:23;99580.22;;;7.14;100.00
72570;BME280;60594;50.204;8.844;2023-03-22T05:19:53;99580.31;;;7.13;100.00
72570;BME280;60594;50.204;8.844;2023-03-22T05:22:19;99590.91;;;7.13;100.00
72570;BME280;60594;50.204;8.844;2023-03-22T05:24:49;99589.09;;;7.02;100.00
72570;BME280;60594;50.204;8.844;2023-03-22T05:27:20;99590.88;;;7.01;100.00
72570;BME280;60594;50.204;8.844;2023-03-22T05:29:56;99592.34;;;7.05;100.00
72570;BME280;60594;50.204;8.844;2023-03-22T05:32:30;99595.69;;;6.96;100.00
72570;BME280;60594;50.204;8.844;2023-03-22T05:34:56;99593.66;;;7.00;100.00
72570;BME280;60594;50.204;8.844;2023-03-22T05:37:34;99599.00;;;7.22;100.00
72570;BME280;60594;50.204;8.844;2023-03-22T05:40:01;99601.22;;;7.28;100.00
72570;BME280;60594;50.204;8.844;2023-03-22T05:42:37;99608.41;;;7.26;100.00
72570;BME280;60594;50.204;8.844;2023-03-22T05:45:13;99602.03;;;7.18;100.00
72570;BME280;60594;50.204;8.844;2023-03-22T05:47:41;99604.69;;;7.18;100.00
72570;BME280;60594;50.204;8.844;2023-03-22T05:50:21;99604.66;;;7.07;100.00
72570;BME280;60594;50.204;8.844;2023-03-22T05:52:49;99607.03;;;7.09;100.00
72570;BME280;60594;50.204;8.844;2023-03-22T05:55:26;99613.16;;;6.99;100.00
72570;BME280;60594;50.204;8.844;2023-03-22T05:57:58;99610.06;;;7.05;100.00
72570;BME280;60594;50.204;8.844;2023-03-22T06:00:27;99609.00;;;6.84;100.00
72570;BME280;60594;50.204;8.844;2023-03-22T06:03:32;99616.03;;;6.96;100.00
72570;BME280;60594;50.204;8.844;2023-03-22T06:06:19;99616.56;;;7.01;100.00
72570;BME280;60594;50.204;8.844;2023-03-22T06:09:00;99610.28;;;7.02;100.00
72570;BME280;60594;50.204;8.844;2023-03-22T06:11:26;99608.19;;;6.94;100.00
72570;BME280;60594;50.204;8.844;2023-03-22T06:13:54;99605.06;;;6.89;100.00
72570;BME280;60594;50.204;8.844;2023-03-22T06:16:24;99604.13;;;7.01;100.00
72570;BME280;60594;50.204;8.844;2023-03-22T06:18:50;99600.28;;;7.05;100.00
72570;BME280;60594;50.204;8.844;2023-03-22T06:21:17;99599.84;;;7.12;100.00
72570;BME280;60594;50.204;8.844;2023-03-22T06:23:43;99596.44;;;7.09;100.00
72570;BME280;60594;50.204;8.844;2023-03-22T06:26:11;99594.63;;;6.99;100.00
72570;BME280;60594;50.204;8.844;2023-03-22T06:28:38;99591.94;;;6.88;100.00
72570;BME280;60594;50.204;8.844;2023-03-22T06:31:09;99596.88;;;6.92;100.00
72570;BME280;60594;50.204;8.844;2023-03-22T06:33:44;99595.09;;;7.04;100.00
72570;BME280;60594;50.204;8.844;2023-03-22T06:36:29;99598.47;;;6.95;100.00
72570;BME280;60594;50.204;8.844;2023-03-22T06:39:08;99605.69;;;7.04;100.00
72570;BME280;60594;50.204;8.844;2023-03-22T06:41:34;99610.53;;;7.10;100.00
72570;BME280;60594;50.204;8.844;2023-03-22T06:44:01;99614.38;;;7.06;100.00
72570;BME280;60594;50.204;8.844;2023-03-22T06:46:54;99619.56;;;7.07;100.00
72570;BME280;60594;50.204;8.844;2023-03-22T06:49:43;99613.75;;;7.02;100.00
72570;BME280;60594;50.204;8.844;2023-03-22T06:52:15;99614.88;;;7.11;100.00
72570;BME280;60594;50.204;8.844;2023-03-22T06:54:41;99616.78;;;7.44;100.00
72570;BME280;60594;50.204;8.844;2023-03-22T06:57:09;99618.84;;;7.62;100.00
72570;BME280;60594;50.204;8.844;2023-03-22T06:59:36;99623.06;;;7.65;100.00
72570;BME280;60594;50.204;8.844;2023-03-22T07:02:02;99629.00;;;7.79;100.00
72570;BME280;60594;50.204;8.844;2023-03-22T07:04:29;99634.31;;;7.90;100.00
72570;BME280;60594;50.204;8.844;2023-03-22T07:06:56;99629.97;;;8.00;100.00
72570;BME280;60594;50.204;8.844;2023-03-22T07:09:24;99630.47;;;7.94;100.00
72570;BME280;60594;50.204;8.844;2023-03-22T07:11:53;99627.94;;;7.93;100.00
72570;BME280;60594;50.204;8.844;2023-03-22T07:14:21;99625.97;;;7.95;100.00
72570;BME280;60594;50.204;8.844;2023-03-22T07:17:00;99629.38;;;8.08;100.00
72570;BME280;60594;50.204;8.844;2023-03-22T07:19:29;99628.31;;;8.21;100.00
72570;BME280;60594;50.204;8.844;2023-03-22T07:21:57;99624.94;;;8.30;100.00
72570;BME280;60594;50.204;8.844;2023-03-22T07:24:24;99621.75;;;8.36;100.00
72570;BME280;60594;50.204;8.844;2023-03-22T07:26:50;99622.72;;;8.46;100.00
72570;BME280;60594;50.204;8.844;2023-03-22T07:29:22;99622.34;;;8.62;100.00
72570;BME280;60594;50.204;8.844;2023-03-22T07:31:49;99613.72;;;8.69;100.00
72570;BME280;60594;50.204;8.844;2023-03-22T07:34:22;99615.66;;;8.78;100.00
72570;BME280;60594;50.204;8.844;2023-03-22T07:37:00;99622.25;;;8.84;100.00
72570;BME280;60594;50.204;8.844;2023-03-22T07:39:28;99614.63;;;8.90;100.00
72570;BME280;60594;50.204;8.844;2023-03-22T07:41:55;99607.31;;;9.03;100.00
72570;BME280;60594;50.204;8.844;2023-03-22T07:44:25;99600.06;;;9.05;100.00
72570;BME280;60594;50.204;8.844;2023-03-22T07:47:20;99597.84;;;9.10;100.00
72570;BME280;60594;50.204;8.844;2023-03-22T07:50:02;99601.00;;;9.15;100.00
72570;BME280;60594;50.204;8.844;2023-03-22T07:52:31;99594.44;;;9.19;100.00
72570;BME280;60594;50.204;8.844;2023-03-22T07:54:58;99602.41;;;9.19;100.00
72570;BME280;60594;50.204;8.844;2023-03-22T07:57:24;99588.88;;;9.22;100.00
72570;BME280;60594;50.204;8.844;2023-03-22T07:59:55;99597.28;;;9.48;100.00
72570;BME280;60594;50.204;8.844;2023-03-22T08:02:24;99603.22;;;9.61;100.00
72570;BME280;60594;50.204;8.844;2023-03-22T08:04:53;99581.63;;;9.54;100.00
72570;BME280;60594;50.204;8.844;2023-03-22T08:07:41;99602.44;;;9.70;100.00
72570;BME280;60594;50.204;8.844;2023-03-22T08:10:10;99592.84;;;9.78;100.00
72570;BME280;60594;50.204;8.844;2023-03-22T08:12:37;99596.66;;;9.85;100.00
72570;BME280;60594;50.204;8.844;2023-03-22T08:15:12;99584.94;;;9.97;99.13
72570;BME280;60594;50.204;8.844;2023-03-22T08:17:39;99591.22;;;10.17;97.58
72570;BME280;60594;50.204;8.844;2023-03-22T08:20:10;99594.75;;;10.36;94.61
72570;BME280;60594;50.204;8.844;2023-03-22T08:22:45;99589.03;;;10.51;94.37
72570;BME280;60594;50.204;8.844;2023-03-22T08:25:26;99588.63;;;10.65;93.50
72570;BME280;60594;50.204;8.844;2023-03-22T08:27:58;99587.25;;;10.80;93.19
72570;BME280;60594;50.204;8.844;2023-03-22T08:30:27;99586.13;;;10.92;92.10
72570;BME280;60594;50.204;8.844;2023-03-22T08:32:53;99593.72;;;10.96;90.59
72570;BME280;60594;50.204;8.844;2023-03-22T08:35:20;99581.91;;;10.89;91.67
72570;BME280;60594;50.204;8.844;2023-03-22T08:37:47;99581.78;;;10.72;90.98
72570;BME280;60594;50.204;8.844;2023-03-22T08:40:14;99594.13;;;10.73;92.28
72570;BME280;60594;50.204;8.844;2023-03-22T08:42:45;99592.97;;;10.56;91.98
72570;BME280;60594;50.204;8.844;2023-03-22T08:45:12;99597.03;;;10.51;92.21
72570;BME280;60594;50.204;8.844;2023-03-22T08:47:48;99597.75;;;10.62;91.84
72570;BME280;60594;50.204;8.844;2023-03-22T08:50:17;99604.38;;;10.87;90.98
72570;BME280;60594;50.204;8.844;2023-03-22T08:52:50;99592.00;;;11.43;88.64
72570;BME280;60594;50.204;8.844;2023-03-22T08:55:26;99583.75;;;11.92;86.05
72570;BME280;60594;50.204;8.844;2023-03-22T08:58:11;99589.50;;;12.51;83.30
72570;BME280;60594;50.204;8.844;2023-03-22T09:00:49;99591.38;;;12.41;83.72
72570;BME280;60594;50.204;8.844;2023-03-22T09:03:23;99576.59;;;12.64;83.76
72570;BME280;60594;50.204;8.844;2023-03-22T09:05:50;99580.13;;;12.82;81.23
72570;BME280;60594;50.204;8.844;2023-03-22T09:08:17;99572.41;;;12.79;81.43
72570;BME280;60594;50.204;8.844;2023-03-22T09:10:47;99574.38;;;13.04;80.54
72570;BME280;60594;50.204;8.844;2023-03-22T09:13:18;99582.09;;;12.62;80.54
72570;BME280;60594;50.204;8.844;2023-03-22T09:15:52;99585.41;;;12.56;81.97
72570;BME280;60594;50.204;8.844;2023-03-22T09:18:23;99568.94;;;12.51;81.68
72570;BME280;60594;50.204;8.844;2023-03-22T09:20:51;99575.47;;;12.22;79.96
72570;BME280;60594;50.204;8.844;2023-03-22T09:23:20;99573.97;;;12.10;81.78
72570;BME280;60594;50.204;8.844;2023-03-22T09:25:47;99565.25;;;12.62;80.55
72570;BME280;60594;50.204;8.844;2023-03-22T09:28:18;99562.56;;;12.79;77.20
72570;BME280;60594;50.204;8.844;2023-03-22T09:30:45;99539.66;;;12.77;77.42
72570;BME280;60594;50.204;8.844;2023-03-22T09:33:14;99546.91;;;12.84;77.86
72570;BME280;60594;50.204;8.844;2023-03-22T09:35:44;99553.00;;;12.94;77.63
72570;BME280;60594;50.204;8.844;2023-03-22T09:38:12;99546.59;;;13.05;76.28
72570;BME280;60594;50.204;8.844;2023-03-22T09:40:49;99545.59;;;12.71;76.93
72570;BME280;60594;50.204;8.844;2023-03-22T09:43:18;99541.00;;;12.63;77.55
72570;BME280;60594;50.204;8.844;2023-03-22T09:45:47;99546.41;;;13.41;76.21
72570;BME280;60594;50.204;8.844;2023-03-22T09:48:20;99543.78;;;13.49;75.65
72570;BME280;60594;50.204;8.844;2023-03-22T09:50:50;99536.16;;;13.62;73.90
72570;BME280;60594;50.204;8.844;2023-03-22T09:53:18;99523.66;;;13.71;74.46
72570;BME280;60594;50.204;8.844;2023-03-22T09:56:20;99524.25;;;13.91;72.79
72570;BME280;60594;50.204;8.844;2023-03-22T09:58:42;99524.44;;;14.23;71.50
72570;BME280;60594;50.204;8.844;2023-03-22T10:01:27;99521.25;;;13.60;71.76
72570;BME280;60594;50.204;8.844;2023-03-22T10:06:41;99503.88;;;12.95;71.52
72570;BME280;60594;50.204;8.844;2023-03-22T10:09:28;99497.47;;;13.06;72.50
72570;BME280;60594;50.204;8.844;2023-03-22T10:12:27;99498.31;;;12.89;73.78
72570;BME280;60594;50.204;8.844;2023-03-22T10:15:04;99505.13;;;12.66;72.72
72570;BME280;60594;50.204;8.844;2023-03-22T10:17:34;99498.78;;;12.67;72.98
72570;BME280;60594;50.204;8.844;2023-03-22T10:20:09;99508.47;;;12.68;73.68
72570;BME280;60594;50.204;8.844;2023-03-22T10:22:45;99508.88;;;12.73;74.65
72570;BME280;60594;50.204;8.844;2023-03-22T10:25:16;99504.41;;;12.81;72.89
72570;BME280;60594;50.204;8.844;2023-03-22T10:27:46;99499.63;;;12.67;74.32
72570;BME280;60594;50.204;8.844;2023-03-22T10:30:25;99503.81;;;12.52;73.89
72570;BME280;60594;50.204;8.844;2023-03-22T10:33:00;99500.59;;;12.49;74.60
72570;BME280;60594;50.204;8.844;2023-03-22T10:35:27;99513.44;;;12.63;75.25
72570;BME280;60594;50.204;8.844;2023-03-22T10:37:57;99502.13;;;12.69;74.92
72570;BME280;60594;50.204;8.844;2023-03-22T10:40:29;99499.97;;;12.90;72.39
72570;BME280;60594;50.204;8.844;2023-03-22T10:43:21;99504.50;;;13.07;72.80
72570;BME280;60594;50.204;8.844;2023-03-22T10:45:51;99508.19;;;13.06;73.54
72570;BME280;60594;50.204;8.844;2023-03-22T10:48:31;99512.22;;;13.10;74.36
72570;BME280;60594;50.204;8.844;2023-03-22T10:50:59;99512.28;;;13.18;72.17
72570;BME280;60594;50.204;8.844;2023-03-22T10:53:28;99515.91;;;13.60;71.43
72570;BME280;60594;50.204;8.844;2023-03-22T10:55:56;99503.81;;;13.56;70.12
72570;BME280;60594;50.204;8.844;2023-03-22T10:58:29;99504.41;;;13.68;69.14
72570;BME280;60594;50.204;8.844;2023-03-22T11:00:58;99506.25;;;13.75;67.02
72570;BME280;60594;50.204;8.844;2023-03-22T11:08:47;99512.41;;;14.35;65.47
72570;BME280;60594;50.204;8.844;2023-03-22T11:11:33;99511.78;;;14.49;64.97
72570;BME280;60594;50.204;8.844;2023-03-22T11:14:13;99509.97;;;14.16;64.99
72570;BME280;60594;50.204;8.844;2023-03-22T11:17:06;99506.97;;;14.19;63.46
72570;BME280;60594;50.204;8.844;2023-03-22T11:19:36;99495.88;;;14.63;63.41
72570;BME280;60594;50.204;8.844;2023-03-22T11:22:19;99501.91;;;14.73;64.22
72570;BME280;60594;50.204;8.844;2023-03-22T11:24:49;99502.56;;;14.51;64.30
72570;BME280;60594;50.204;8.844;2023-03-22T11:27:22;99497.97;;;14.28;65.08
72570;BME280;60594;50.204;8.844;2023-03-22T11:29:57;99485.63;;;14.59;62.74
72570;BME280;60594;50.204;8.844;2023-03-22T11:32:34;99483.16;;;14.73;63.30
72570;BME280;60594;50.204;8.844;2023-03-22T11:35:11;99486.47;;;15.15;62.65
72570;BME280;60594;50.204;8.844;2023-03-22T11:37:41;99476.56;;;15.32;60.32
72570;BME280;60594;50.204;8.844;2023-03-22T11:40:16;99485.09;;;15.59;60.62
72570;BME280;60594;50.204;8.844;2023-03-22T11:42:45;99479.03;;;15.65;59.69
72570;BME280;60594;50.204;8.844;2023-03-22T11:45:15;99479.84;;;15.66;59.76
72570;BME280;60594;50.204;8.844;2023-03-22T11:47:42;99479.75;;;15.51;57.33
72570;BME280;60594;50.204;8.844;2023-03-22T11:50:24;99484.28;;;15.43;57.95
72570;BME280;60594;50.204;8.844;2023-03-22T11:52:51;99455.50;;;15.67;58.05
72570;BME280;60594;50.204;8.844;2023-03-22T11:55:19;99453.22;;;15.95;58.81
72570;BME280;60594;50.204;8.844;2023-03-22T11:57:45;99446.25;;;16.16;58.92
72570;BME280;60594;50.204;8.844;2023-03-22T12:00:19;99442.75;;;16.08;57.41
72570;BME280;60594;50.204;8.844;2023-03-22T12:02:50;99449.47;;;15.73;57.38
72570;BME280;60594;50.204;8.844;2023-03-22T12:05:24;99457.66;;;15.80;57.37
72570;BME280;60594;50.204;8.844;2023-03-22T12:08:05;99446.91;;;15.80;56.89
72570;BME280;60594;50.204;8.844;2023-03-22T12:10:40;99437.22;;;15.71;57.69
72570;BME280;60594;50.204;8.844;2023-03-22T12:13:46;99433.16;;;15.75;58.35
72570;BME280;60594;50.204;8.844;2023-03-22T12:16:20;99431.59;;;16.19;58.02
72570;BME280;60594;50.204;8.844;2023-03-22T12:19:05;99426.22;;;16.19;56.71
72570;BME280;60594;50.204;8.844;2023-03-22T12:21:40;99436.84;;;16.43;57.44
72570;BME280;60594;50.204;8.844;2023-03-22T12:24:21;99427.13;;;16.34;55.37
72570;BME280;60594;50.204;8.844;2023-03-22T12:26:48;99418.03;;;16.35;55.81
72570;BME280;60594;50.204;8.844;2023-03-22T12:29:18;99429.47;;;16.37;55.49
72570;BME280;60594;50.204;8.844;2023-03-22T12:31:56;99432.47;;;16.42;52.85
72570;BME280;60594;50.204;8.844;2023-03-22T12:34:33;99427.19;;;16.56;54.59
72570;BME280;60594;50.204;8.844;2023-03-22T12:37:01;99425.72;;;16.68;54.83
72570;BME280;60594;50.204;8.844;2023-03-22T12:39:39;99428.78;;;16.65;54.44
72570;BME280;60594;50.204;8.844;2023-03-22T12:42:28;99413.69;;;16.34;55.49
72570;BME280;60594;50.204;8.844;2023-03-22T12:45:01;99415.13;;;16.14;56.48
72570;BME280;60594;50.204;8.844;2023-03-22T12:47:37;99415.13;;;16.22;54.19
72570;BME280;60594;50.204;8.844;2023-03-22T12:50:16;99420.84;;;16.19;55.49
72570;BME280;60594;50.204;8.844;2023-03-22T12:52:51;99415.88;;;16.08;56.14
72570;BME280;60594;50.204;8.844;2023-03-22T12:55:20;99404.25;;;16.07;54.38
72570;BME280;60594;50.204;8.844;2023-03-22T12:57:49;99403.56;;;16.13;55.57
72570;BME280;60594;50.204;8.844;2023-03-22T13:00:59;99395.38;;;16.29;55.56
72570;BME280;60594;50.204;8.844;2023-03-22T13:03:43;99396.34;;;16.36;52.71
72570;BME280;60594;50.204;8.844;2023-03-22T13:09:17;99409.47;;;16.09;55.83
72570;BME280;60594;50.204;8.844;2023-03-22T13:11:48;99403.00;;;16.26;55.48
72570;BME280;60594;50.204;8.844;2023-03-22T13:19:54;99395.91;;;16.25;53.73
72570;BME280;60594;50.204;8.844;2023-03-22T13:25:04;99393.56;;;16.52;53.15
72570;BME280;60594;50.204;8.844;2023-03-22T13:27:34;99392.31;;;16.63;52.76
72570;BME280;60594;50.204;8.844;2023-03-22T13:30:01;99390.75;;;16.46;52.43
72570;BME280;60594;50.204;8.844;2023-03-22T13:32:31;99389.94;;;16.37;53.93
72570;BME280;60594;50.204;8.844;2023-03-22T13:34:59;99385.31;;;16.31;53.97
72570;BME280;60594;50.204;8.844;2023-03-22T13:37:34;99379.66;;;16.49;52.85
72570;BME280;60594;50.204;8.844;2023-03-22T13:43:12;99359.28;;;16.69;51.75
72570;BME280;60594;50.204;8.844;2023-03-22T13:51:33;99355.84;;;16.60;51.08
72570;BME280;60594;50.204;8.844;2023-03-22T13:59:12;99366.00;;;16.73;51.75
72570;BME280;60594;50.204;8.844;2023-03-22T14:01:45;99351.25;;;16.83;50.08
72570;BME280;60594;50.204;8.844;2023-03-22T14:04:17;99357.66;;;16.83;50.93
72570;BME280;60594;50.204;8.844;2023-03-22T14:06:52;99369.47;;;17.11;51.07
72570;BME280;60594;50.204;8.844;2023-03-22T14:09:28;99346.91;;;17.12;50.55
72570;BME280;60594;50.204;8.844;2023-03-22T14:15:03;99342.53;;;17.11;49.05
72570;BME280;60594;50.204;8.844;2023-03-22T14:17:43;99345.03;;;16.83;49.88
72570;BME280;60594;50.204;8.844;2023-03-22T14:20:15;99349.09;;;16.64;50.71
72570;BME280;60594;50.204;8.844;2023-03-22T14:23:15;99352.81;;;16.92;50.02